createdAt,value
2017-04-29T00:00:28.682Z,1009.04
2017-04-29T00:01:38.961Z,1009.02
2017-04-29T00:02:49.248Z,1009.05
2017-04-29T00:03:59.773Z,1009.09
2017-04-29T00:05:10.068Z,1009.14
2017-04-29T00:06:20.040Z,1009.15
2017-04-29T00:07:30.344Z,1009.18
2017-04-29T00:08:40.324Z,1009.19
2017-04-29T00:09:50.913Z,1009.15
2017-04-29T00:11:01.218Z,1009.19
2017-04-29T00:12:11.188Z,1009.18
2017-04-29T00:13:20.853Z,1009.16
2017-04-29T00:14:31.169Z,1009.14
2017-04-29T00:15:41.710Z,1009.17
2017-04-29T00:16:52.000Z,1009.17
2017-04-29T00:18:01.967Z,1009.18
2017-04-29T00:19:11.953Z,1009.13
2017-04-29T00:20:22.231Z,1009.17
2017-04-29T00:21:32.467Z,1009.15
2017-04-29T00:22:42.450Z,1009.15
2017-04-29T00:23:52.112Z,1009.17
2017-04-29T00:25:02.079Z,1009.16
2017-04-29T00:26:11.740Z,1009.19
2017-04-29T00:27:21.645Z,1009.16
2017-04-29T00:28:31.621Z,1009.21
2017-04-29T00:29:41.608Z,1009.19
2017-04-29T00:30:51.895Z,1009.2
2017-04-29T00:32:02.179Z,1009.17
2017-04-29T00:33:12.717Z,1009.2
2017-04-29T00:34:23.006Z,1009.24
2017-04-29T00:35:33.279Z,1009.24
2017-04-29T00:36:43.586Z,1009.21
2017-04-29T00:37:53.586Z,1009.21
2017-04-29T00:39:03.817Z,1009.21
2017-04-29T00:40:14.102Z,1009.25
2017-04-29T00:41:23.791Z,1009.26
2017-04-29T00:42:34.071Z,1009.33
2017-04-29T00:43:44.042Z,1009.27
2017-04-29T00:44:54.306Z,1009.29
2017-04-29T00:46:04.285Z,1009.33
2017-04-29T00:47:14.579Z,1009.34
2017-04-29T00:48:24.852Z,1009.33
2017-04-29T00:49:34.830Z,1009.4
2017-04-29T00:50:45.052Z,1009.32
2017-04-29T00:51:55.342Z,1009.34
2017-04-29T00:53:05.637Z,1009.33
2017-04-29T00:54:15.608Z,1009.3
2017-04-29T00:55:25.274Z,1009.31
2017-04-29T00:56:35.501Z,1009.31
2017-04-29T00:57:45.785Z,1009.39
2017-04-29T00:58:56.068Z,1009.43
2017-04-29T01:00:06.373Z,1009.45
2017-04-29T01:01:16.654Z,1009.48
2017-04-29T01:02:27.198Z,1009.45
2017-04-29T01:03:37.492Z,1009.44
2017-04-29T01:04:47.159Z,1009.44
2017-04-29T01:05:57.134Z,1009.48
2017-04-29T01:07:07.100Z,1009.5
2017-04-29T01:08:17.638Z,1009.52
2017-04-29T01:09:27.613Z,1009.56
2017-04-29T01:10:37.291Z,1009.54
2017-04-29T01:11:47.565Z,1009.54
2017-04-29T01:12:57.846Z,1009.59
2017-04-29T01:14:08.062Z,1009.56
2017-04-29T01:15:18.450Z,1009.58
2017-04-29T01:16:28.739Z,1009.57
2017-04-29T01:17:39.022Z,1009.61
2017-04-29T01:18:49.304Z,1009.66
2017-04-29T01:19:59.840Z,1009.62
2017-04-29T01:21:09.456Z,1009.62
2017-04-29T01:22:19.117Z,1009.66
2017-04-29T01:23:29.397Z,1009.65
2017-04-29T01:24:39.682Z,1009.69
2017-04-29T01:25:49.913Z,1009.7
2017-04-29T01:27:00.250Z,1009.7
2017-04-29T01:28:10.536Z,1009.71
2017-04-29T01:29:20.838Z,1009.73
2017-04-29T01:30:30.506Z,1009.72
2017-04-29T01:31:41.047Z,1009.73
2017-04-29T01:32:51.324Z,1009.76
2017-04-29T01:34:01.313Z,1009.77
2017-04-29T01:35:11.601Z,1009.78
2017-04-29T01:36:21.572Z,1009.79
2017-04-29T01:37:32.114Z,1009.78
2017-04-29T01:38:42.085Z,1009.78
2017-04-29T01:39:52.363Z,1009.78
2017-04-29T01:41:02.650Z,1009.79
2017-04-29T01:42:12.919Z,1009.77
2017-04-29T01:43:23.133Z,1009.74
2017-04-29T01:44:33.423Z,1009.74
2017-04-29T01:45:43.710Z,1009.76
2017-04-29T01:46:53.687Z,1009.76
2017-04-29T01:48:03.663Z,1009.77
2017-04-29T01:49:13.889Z,1009.77
2017-04-29T01:50:24.177Z,1009.78
2017-04-29T01:51:34.469Z,1009.77
2017-04-29T01:52:44.760Z,1009.78
2017-04-29T01:53:55.046Z,1009.79
2017-04-29T01:55:05.573Z,1009.82
2017-04-29T01:56:15.864Z,1009.73
2017-04-29T01:57:26.152Z,1009.78
2017-04-29T01:58:36.119Z,1009.72
2017-04-29T01:59:46.408Z,1009.74
2017-04-29T02:00:56.952Z,1009.76
2017-04-29T02:02:07.236Z,1009.76
2017-04-29T02:03:17.522Z,1009.75
2017-04-29T02:04:27.815Z,1009.79
2017-04-29T02:05:37.794Z,1009.78
2017-04-29T02:06:48.328Z,1009.78
2017-04-29T02:07:58.301Z,1009.74
2017-04-29T02:09:08.584Z,1009.73
2017-04-29T02:10:18.869Z,1009.74
2017-04-29T02:11:28.840Z,1009.65
2017-04-29T02:12:39.395Z,1009.64
2017-04-29T02:13:49.700Z,1009.67
2017-04-29T02:14:59.997Z,1009.61
2017-04-29T02:16:10.290Z,1009.61
2017-04-29T02:17:20.273Z,1009.61
2017-04-29T02:18:30.826Z,1009.64
2017-04-29T02:19:41.127Z,1009.65
2017-04-29T02:20:51.408Z,1009.64
2017-04-29T02:22:01.375Z,1009.63
2017-04-29T02:23:11.664Z,1009.61
2017-04-29T02:24:21.894Z,1009.66
2017-04-29T02:25:31.872Z,1009.62
2017-04-29T02:26:42.150Z,1009.64
2017-04-29T02:27:52.432Z,1009.59
2017-04-29T02:29:02.713Z,1009.59
2017-04-29T02:30:13.246Z,1009.62
2017-04-29T02:31:23.224Z,1009.63
2017-04-29T02:32:33.516Z,1009.62
2017-04-29T02:33:43.800Z,1009.6
2017-04-29T02:34:53.461Z,1009.63
2017-04-29T02:36:04.018Z,1009.61
2017-04-29T02:37:14.301Z,1009.65
2017-04-29T02:38:24.277Z,1009.65
2017-04-29T02:39:34.569Z,1009.64
2017-04-29T02:40:44.534Z,1009.66
2017-04-29T02:41:54.755Z,1009.7
2017-04-29T02:43:05.032Z,1009.74
2017-04-29T02:44:15.002Z,1009.71
2017-04-29T02:45:24.984Z,1009.72
2017-04-29T02:46:34.952Z,1009.67
2017-04-29T02:47:45.483Z,1009.74
2017-04-29T02:48:55.791Z,1009.71
2017-04-29T02:50:05.769Z,1009.73
2017-04-29T02:51:16.057Z,1009.72
2017-04-29T02:52:26.336Z,1009.74
2017-04-29T02:53:36.865Z,1009.75
2017-04-29T02:54:47.151Z,1009.77
2017-04-29T02:55:57.123Z,1009.78
2017-04-29T02:57:07.093Z,1009.81
2017-04-29T02:58:17.383Z,1009.8
2017-04-29T02:59:27.920Z,1009.82
2017-04-29T03:00:38.199Z,1009.81
2017-04-29T03:01:47.547Z,1009.81
2017-04-29T03:02:57.829Z,1009.82
2017-04-29T03:04:07.801Z,1009.81
2017-04-29T03:05:18.359Z,1009.81
2017-04-29T03:06:28.325Z,1009.82
2017-04-29T03:07:38.615Z,1009.82
2017-04-29T03:08:48.915Z,1009.84
2017-04-29T03:09:59.208Z,1009.88
2017-04-29T03:11:09.736Z,1009.83
2017-04-29T03:12:20.027Z,1009.86
2017-04-29T03:13:30.315Z,1009.86
2017-04-29T03:14:40.616Z,1009.87
2017-04-29T03:15:50.283Z,1009.88
2017-04-29T03:17:00.806Z,1009.89
2017-04-29T03:18:11.093Z,1009.9
2017-04-29T03:19:21.377Z,1009.92
2017-04-29T03:20:31.650Z,1009.96
2017-04-29T03:21:41.628Z,1009.95
2017-04-29T03:22:51.850Z,1009.96
2017-04-29T03:24:02.127Z,1009.93
2017-04-29T03:25:12.099Z,1009.99
2017-04-29T03:26:22.079Z,1009.96
2017-04-29T03:27:32.055Z,1010
2017-04-29T03:28:42.596Z,1010.03
2017-04-29T03:29:52.883Z,1009.98
2017-04-29T03:31:03.171Z,1010.03
2017-04-29T03:32:13.149Z,1010.02
2017-04-29T03:33:23.480Z,1010.02
2017-04-29T03:34:34.016Z,1010.03
2017-04-29T03:35:43.987Z,1010.04
2017-04-29T03:36:54.278Z,1010.01
2017-04-29T03:38:04.563Z,1010.03
2017-04-29T03:39:14.868Z,1010.02
2017-04-29T03:40:25.408Z,1010.03
2017-04-29T03:41:35.701Z,1010.04
2017-04-29T03:42:46.018Z,1010.06
2017-04-29T03:43:56.029Z,1010.08
2017-04-29T03:45:06.318Z,1010.03
2017-04-29T03:46:16.850Z,1010.04
2017-04-29T03:47:27.135Z,1010.06
2017-04-29T03:48:37.416Z,1010.04
2017-04-29T03:49:47.702Z,1010.12
2017-04-29T03:50:57.986Z,1010.07
2017-04-29T03:52:08.208Z,1010.11
2017-04-29T03:53:18.178Z,1010.07
2017-04-29T03:54:28.153Z,1010.11
2017-04-29T03:55:38.437Z,1010.18
2017-04-29T03:56:48.721Z,1010.17
2017-04-29T03:57:59.256Z,1010.11
2017-04-29T03:59:09.232Z,1010.18
2017-04-29T04:00:19.223Z,1010.2
2017-04-29T04:01:29.503Z,1010.23
2017-04-29T04:02:39.790Z,1010.26
2017-04-29T04:03:49.709Z,1010.27
2017-04-29T04:04:59.690Z,1010.33
2017-04-29T04:06:09.995Z,1010.31
2017-04-29T04:07:19.964Z,1010.28
2017-04-29T04:08:30.253Z,1010.27
2017-04-29T04:09:40.857Z,1010.28
2017-04-29T04:10:51.150Z,1010.3
2017-04-29T04:12:01.438Z,1010.29
2017-04-29T04:13:11.731Z,1010.32
2017-04-29T04:14:22.007Z,1010.32
2017-04-29T04:15:32.545Z,1010.33
2017-04-29T04:16:42.819Z,1010.34
2017-04-29T04:17:52.828Z,1010.34
2017-04-29T04:19:03.114Z,1010.36
2017-04-29T04:20:13.407Z,1010.35
2017-04-29T04:21:23.950Z,1010.36
2017-04-29T04:22:33.915Z,1010.39
2017-04-29T04:23:44.192Z,1010.45
2017-04-29T04:24:54.477Z,1010.39
2017-04-29T04:26:04.760Z,1010.42
2017-04-29T04:27:15.289Z,1010.39
2017-04-29T04:28:25.567Z,1010.39
2017-04-29T04:29:35.847Z,1010.46
2017-04-29T04:30:46.137Z,1010.49
2017-04-29T04:31:55.799Z,1010.48
2017-04-29T04:33:06.028Z,1010.42
2017-04-29T04:34:16.309Z,1010.43
2017-04-29T04:35:26.591Z,1010.4
2017-04-29T04:36:36.878Z,1010.4
2017-04-29T04:37:47.214Z,1010.41
2017-04-29T04:38:57.747Z,1010.39
2017-04-29T04:40:08.031Z,1010.41
2017-04-29T04:41:18.353Z,1010.41
2017-04-29T04:42:28.689Z,1010.39
2017-04-29T04:43:38.363Z,1010.42
2017-04-29T04:44:48.895Z,1010.43
2017-04-29T04:45:59.188Z,1010.43
2017-04-29T04:47:08.543Z,1010.45
2017-04-29T04:48:18.828Z,1010.49
2017-04-29T04:49:28.809Z,1010.55
2017-04-29T04:50:39.342Z,1010.53
2017-04-29T04:51:49.624Z,1010.62
2017-04-29T04:52:59.591Z,1010.62
2017-04-29T04:54:09.257Z,1010.62
2017-04-29T04:55:19.542Z,1010.6
2017-04-29T04:56:29.821Z,1010.59
2017-04-29T04:57:40.103Z,1010.6
2017-04-29T04:58:50.393Z,1010.6
2017-04-29T05:00:00.682Z,1010.58
2017-04-29T05:01:10.337Z,1010.52
2017-04-29T05:02:20.868Z,1010.56
2017-04-29T05:03:31.149Z,1010.56
2017-04-29T05:04:41.437Z,1010.51
2017-04-29T05:05:51.113Z,1010.52
2017-04-29T05:07:01.415Z,1010.54
2017-04-29T05:08:11.943Z,1010.52
2017-04-29T05:09:22.238Z,1010.56
2017-04-29T05:10:32.518Z,1010.55
2017-04-29T05:11:42.497Z,1010.59
2017-04-29T05:12:52.778Z,1010.56
2017-04-29T05:14:03.003Z,1010.61
2017-04-29T05:15:13.301Z,1010.64
2017-04-29T05:16:23.272Z,1010.68
2017-04-29T05:17:33.561Z,1010.69
2017-04-29T05:18:43.857Z,1010.74
2017-04-29T05:19:53.771Z,1010.79
2017-04-29T05:21:03.435Z,1010.77
2017-04-29T05:22:13.727Z,1010.79
2017-04-29T05:23:24.047Z,1010.79
2017-04-29T05:24:34.341Z,1010.81
2017-04-29T05:25:44.891Z,1010.86
2017-04-29T05:26:55.167Z,1010.89
2017-04-29T05:28:05.146Z,1010.97
2017-04-29T05:29:15.443Z,1010.99
2017-04-29T05:30:25.733Z,1010.97
2017-04-29T05:31:36.299Z,1010.97
2017-04-29T05:32:46.571Z,1011
2017-04-29T05:33:56.874Z,1010.94
2017-04-29T05:35:07.157Z,1010.93
2017-04-29T05:36:17.439Z,1010.97
2017-04-29T05:37:27.997Z,1010.97
2017-04-29T05:38:38.279Z,1011.03
2017-04-29T05:39:48.558Z,1010.99
2017-04-29T05:40:58.536Z,1011.03
2017-04-29T05:42:08.817Z,1011.01
2017-04-29T05:43:18.420Z,1011.08
2017-04-29T05:44:27.783Z,1011.03
2017-04-29T05:45:38.076Z,1011.08
2017-04-29T05:46:48.362Z,1011.07
2017-04-29T05:47:58.327Z,1011.08
2017-04-29T05:49:08.560Z,1011.07
2017-04-29T05:50:18.859Z,1011.06
2017-04-29T05:51:29.140Z,1011.07
2017-04-29T05:52:39.432Z,1011.02
2017-04-29T05:53:49.098Z,1011.05
2017-04-29T05:54:59.633Z,1011.01
2017-04-29T05:56:09.603Z,1011.02
2017-04-29T05:57:19.826Z,1011.03
2017-04-29T05:58:30.104Z,1011.04
2017-04-29T05:59:40.129Z,1011.01
2017-04-29T06:00:50.658Z,1010.98
2017-04-29T06:02:00.954Z,1011.02
2017-04-29T06:03:10.308Z,1011.05
2017-04-29T06:04:20.603Z,1010.99
2017-04-29T06:05:29.954Z,1011.07
2017-04-29T06:06:40.486Z,1011.11
2017-04-29T06:07:50.476Z,1011.19
2017-04-29T06:09:00.772Z,1011.16
2017-04-29T06:10:11.077Z,1011.25
2017-04-29T06:11:21.371Z,1011.31
2017-04-29T06:12:31.596Z,1011.33
2017-04-29T06:13:41.880Z,1011.34
2017-04-29T06:14:52.177Z,1011.38
2017-04-29T06:16:02.177Z,1011.4
2017-04-29T06:17:12.145Z,1011.46
2017-04-29T06:18:22.688Z,1011.49
2017-04-29T06:19:32.990Z,1011.48
2017-04-29T06:20:42.664Z,1011.44
2017-04-29T06:21:52.942Z,1011.48
2017-04-29T06:23:02.924Z,1011.51
2017-04-29T06:24:13.150Z,1011.43
2017-04-29T06:25:23.434Z,1011.42
2017-04-29T06:26:33.716Z,1011.41
2017-04-29T06:27:44.006Z,1011.41
2017-04-29T06:28:54.309Z,1011.39
2017-04-29T06:30:04.843Z,1011.4
2017-04-29T06:31:15.116Z,1011.36
2017-04-29T06:32:25.405Z,1011.34
2017-04-29T06:33:35.390Z,1011.38
2017-04-29T06:34:45.676Z,1011.37
2017-04-29T06:35:56.228Z,1011.4
2017-04-29T06:37:05.896Z,1011.43
2017-04-29T06:38:16.195Z,1011.44
2017-04-29T06:39:26.481Z,1011.46
2017-04-29T06:40:36.774Z,1011.46
2017-04-29T06:41:47.018Z,1011.5
2017-04-29T06:42:57.298Z,1011.49
2017-04-29T06:44:07.600Z,1011.49
2017-04-29T06:45:17.879Z,1011.51
2017-04-29T06:46:27.879Z,1011.52
2017-04-29T06:47:38.409Z,1011.51
2017-04-29T06:48:48.707Z,1011.49
2017-04-29T06:49:58.680Z,1011.52
2017-04-29T06:51:08.358Z,1011.5
2017-04-29T06:52:18.331Z,1011.52
2017-04-29T06:53:28.870Z,1011.51
2017-04-29T06:54:39.155Z,1011.52
2017-04-29T06:55:49.141Z,1011.51
2017-04-29T06:56:59.432Z,1011.55
2017-04-29T06:58:09.717Z,1011.57
2017-04-29T06:59:20.253Z,1011.54
2017-04-29T07:00:30.230Z,1011.51
2017-04-29T07:01:40.531Z,1011.51
2017-04-29T07:02:50.825Z,1011.52
2017-04-29T07:04:00.809Z,1011.55
2017-04-29T07:05:11.351Z,1011.59
2017-04-29T07:06:21.634Z,1011.58
2017-04-29T07:07:31.615Z,1011.59
2017-04-29T07:08:41.594Z,1011.61
2017-04-29T07:09:51.572Z,1011.6
2017-04-29T07:11:02.101Z,1011.63
2017-04-29T07:12:12.400Z,1011.63
2017-04-29T07:13:22.374Z,1011.63
2017-04-29T07:14:32.366Z,1011.6
2017-04-29T07:15:42.645Z,1011.6
2017-04-29T07:16:53.180Z,1011.6
2017-04-29T07:18:03.162Z,1011.59
2017-04-29T07:19:13.153Z,1011.59
2017-04-29T07:20:23.132Z,1011.63
2017-04-29T07:21:33.413Z,1011.63
2017-04-29T07:22:43.636Z,1011.63
2017-04-29T07:23:53.617Z,1011.63
2017-04-29T07:25:03.907Z,1011.63
2017-04-29T07:26:13.884Z,1011.67
2017-04-29T07:27:24.179Z,1011.67
2017-04-29T07:28:34.714Z,1011.68
2017-04-29T07:29:44.687Z,1011.66
2017-04-29T07:30:54.973Z,1011.64
2017-04-29T07:32:05.251Z,1011.69
2017-04-29T07:33:15.244Z,1011.66
2017-04-29T07:34:25.792Z,1011.66
2017-04-29T07:35:36.083Z,1011.71
2017-04-29T07:36:46.409Z,1011.68
2017-04-29T07:37:56.705Z,1011.72
2017-04-29T07:39:06.688Z,1011.69
2017-04-29T07:40:16.915Z,1011.72
2017-04-29T07:41:27.201Z,1011.74
2017-04-29T07:42:37.495Z,1011.69
2017-04-29T07:43:47.480Z,1011.68
2017-04-29T07:44:57.791Z,1011.68
2017-04-29T07:46:08.349Z,1011.66
2017-04-29T07:47:18.638Z,1011.68
2017-04-29T07:48:28.918Z,1011.73
2017-04-29T07:49:39.210Z,1011.7
2017-04-29T07:50:49.501Z,1011.69
2017-04-29T07:51:59.733Z,1011.76
2017-04-29T07:53:09.724Z,1011.68
2017-04-29T07:54:20.024Z,1011.69
2017-04-29T07:55:30.321Z,1011.72
2017-04-29T07:56:40.297Z,1011.71
2017-04-29T07:57:50.893Z,1011.74
2017-04-29T07:59:01.191Z,1011.8
2017-04-29T08:00:11.503Z,1011.8
2017-04-29T08:01:21.791Z,1011.8
2017-04-29T08:02:32.091Z,1011.85
2017-04-29T08:03:42.319Z,1011.8
2017-04-29T08:04:52.306Z,1011.83
2017-04-29T08:06:02.595Z,1011.87
2017-04-29T08:07:12.881Z,1011.89
2017-04-29T08:08:23.193Z,1011.94
2017-04-29T08:09:33.431Z,1011.94
2017-04-29T08:10:43.404Z,1011.94
2017-04-29T08:11:53.695Z,1011.94
2017-04-29T08:13:03.985Z,1011.93
2017-04-29T08:14:14.274Z,1011.98
2017-04-29T08:15:24.810Z,1011.97
2017-04-29T08:16:34.811Z,1012
2017-04-29T08:17:45.098Z,1012.01
2017-04-29T08:18:55.384Z,1011.98
2017-04-29T08:20:05.674Z,1012.03
2017-04-29T08:21:16.228Z,1012.02
2017-04-29T08:22:26.514Z,1012.03
2017-04-29T08:23:36.497Z,1012.1
2017-04-29T08:24:46.805Z,1012.04
2017-04-29T08:25:56.785Z,1012.08
2017-04-29T08:27:07.339Z,1012.06
2017-04-29T08:28:17.652Z,1012.14
2017-04-29T08:29:27.951Z,1012.13
2017-04-29T08:30:38.229Z,1012.13
2017-04-29T08:31:48.210Z,1012.11
2017-04-29T08:32:58.755Z,1012.17
2017-04-29T08:34:09.047Z,1012.11
2017-04-29T08:35:19.346Z,1012.12
2017-04-29T08:36:29.675Z,1012.11
2017-04-29T08:37:39.650Z,1012.12
2017-04-29T08:38:50.195Z,1012.15
2017-04-29T08:40:00.210Z,1012.16
2017-04-29T08:41:10.506Z,1012.16
2017-04-29T08:42:20.801Z,1012.17
2017-04-29T08:43:31.105Z,1012.19
2017-04-29T08:44:41.706Z,1012.21
2017-04-29T08:45:51.089Z,1012.27
2017-04-29T08:47:01.385Z,1012.23
2017-04-29T08:48:11.673Z,1012.25
2017-04-29T08:49:21.354Z,1012.22
2017-04-29T08:50:31.271Z,1012.28
2017-04-29T08:51:41.581Z,1012.27
2017-04-29T08:52:51.875Z,1012.26
2017-04-29T08:54:01.865Z,1012.28
2017-04-29T08:55:11.876Z,1012.27
2017-04-29T08:56:22.111Z,1012.29
2017-04-29T08:57:32.417Z,1012.31
2017-04-29T08:58:42.391Z,1012.35
2017-04-29T08:59:51.446Z,1012.32
2017-04-29T09:01:01.749Z,1012.33
2017-04-29T09:02:12.279Z,1012.3
2017-04-29T09:03:22.250Z,1012.26
2017-04-29T09:04:32.536Z,1012.33
2017-04-29T09:05:42.821Z,1012.32
2017-04-29T09:06:53.126Z,1012.32
2017-04-29T09:08:03.348Z,1012.35
2017-04-29T09:09:13.343Z,1012.32
2017-04-29T09:10:23.331Z,1012.32
2017-04-29T09:11:33.624Z,1012.34
2017-04-29T09:12:43.604Z,1012.36
2017-04-29T09:13:53.850Z,1012.39
2017-04-29T09:15:04.161Z,1012.41
2017-04-29T09:16:14.466Z,1012.46
2017-04-29T09:17:24.756Z,1012.43
2017-04-29T09:18:34.751Z,1012.4
2017-04-29T09:19:45.296Z,1012.48
2017-04-29T09:20:55.276Z,1012.48
2017-04-29T09:22:05.562Z,1012.46
2017-04-29T09:23:15.854Z,1012.5
2017-04-29T09:24:26.157Z,1012.46
2017-04-29T09:25:36.708Z,1012.53
2017-04-29T09:26:47.004Z,1012.48
2017-04-29T09:27:57.289Z,1012.52
2017-04-29T09:29:07.280Z,1012.49
2017-04-29T09:30:17.261Z,1012.48
2017-04-29T09:31:27.506Z,1012.51
2017-04-29T09:32:37.811Z,1012.48
2017-04-29T09:33:48.119Z,1012.49
2017-04-29T09:34:58.408Z,1012.48
2017-04-29T09:36:08.396Z,1012.48
2017-04-29T09:37:18.954Z,1012.51
2017-04-29T09:38:28.619Z,1012.54
2017-04-29T09:39:38.606Z,1012.57
2017-04-29T09:40:48.893Z,1012.54
2017-04-29T09:41:59.177Z,1012.55
2017-04-29T09:43:09.729Z,1012.55
2017-04-29T09:44:20.022Z,1012.52
2017-04-29T09:45:30.324Z,1012.53
2017-04-29T09:46:40.618Z,1012.57
2017-04-29T09:47:50.897Z,1012.58
2017-04-29T09:49:01.121Z,1012.56
2017-04-29T09:50:11.420Z,1012.57
2017-04-29T09:51:21.707Z,1012.58
2017-04-29T09:52:32.000Z,1012.53
2017-04-29T09:53:41.991Z,1012.52
2017-04-29T09:54:52.531Z,1012.57
2017-04-29T09:56:02.820Z,1012.59
2017-04-29T09:57:13.108Z,1012.59
2017-04-29T09:58:22.810Z,1012.53
2017-04-29T09:59:33.113Z,1012.55
2017-04-29T10:00:43.641Z,1012.57
2017-04-29T10:01:53.637Z,1012.57
2017-04-29T10:03:03.933Z,1012.58
2017-04-29T10:04:13.917Z,1012.57
2017-04-29T10:05:24.218Z,1012.53
2017-04-29T10:06:34.753Z,1012.49
2017-04-29T10:07:45.060Z,1012.5
2017-04-29T10:08:55.366Z,1012.51
2017-04-29T10:10:05.658Z,1012.5
2017-04-29T10:11:15.966Z,1012.53
2017-04-29T10:12:26.517Z,1012.56
2017-04-29T10:13:36.836Z,1012.48
2017-04-29T10:14:46.842Z,1012.5
2017-04-29T10:15:57.167Z,1012.52
2017-04-29T10:17:07.474Z,1012.54
2017-04-29T10:18:17.711Z,1012.49
2017-04-29T10:19:27.698Z,1012.48
2017-04-29T10:20:37.684Z,1012.44
2017-04-29T10:21:47.966Z,1012.47
2017-04-29T10:22:57.933Z,1012.45
2017-04-29T10:24:08.470Z,1012.5
2017-04-29T10:25:18.173Z,1012.47
2017-04-29T10:26:28.460Z,1012.47
2017-04-29T10:27:38.437Z,1012.47
2017-04-29T10:28:48.743Z,1012.48
2017-04-29T10:29:58.655Z,1012.46
2017-04-29T10:31:08.966Z,1012.46
2017-04-29T10:32:19.267Z,1012.48
2017-04-29T10:33:29.562Z,1012.43
2017-04-29T10:34:39.555Z,1012.46
2017-04-29T10:35:50.094Z,1012.47
2017-04-29T10:36:59.758Z,1012.51
2017-04-29T10:38:09.728Z,1012.5
2017-04-29T10:39:20.008Z,1012.52
2017-04-29T10:40:29.704Z,1012.5
2017-04-29T10:41:39.936Z,1012.54
2017-04-29T10:42:49.906Z,1012.57
2017-04-29T10:43:59.891Z,1012.58
2017-04-29T10:45:09.610Z,1012.52
2017-04-29T10:46:19.908Z,1012.56
2017-04-29T10:47:30.451Z,1012.55
2017-04-29T10:48:40.751Z,1012.54
2017-04-29T10:49:51.042Z,1012.57
2017-04-29T10:51:01.335Z,1012.52
2017-04-29T10:52:11.324Z,1012.48
2017-04-29T10:53:21.869Z,1012.51
2017-04-29T10:54:32.155Z,1012.51
2017-04-29T10:55:42.478Z,1012.5
2017-04-29T10:56:52.785Z,1012.51
2017-04-29T10:58:03.069Z,1012.51
2017-04-29T10:59:12.996Z,1012.52
2017-04-29T11:00:22.735Z,1012.56
2017-04-29T11:01:33.041Z,1012.53
2017-04-29T11:02:43.039Z,1012.54
2017-04-29T11:03:53.335Z,1012.59
2017-04-29T11:05:03.576Z,1012.59
2017-04-29T11:06:13.861Z,1012.62
2017-04-29T11:07:24.152Z,1012.58
2017-04-29T11:08:34.451Z,1012.56
2017-04-29T11:09:44.441Z,1012.58
2017-04-29T11:10:54.972Z,1012.56
2017-04-29T11:12:04.958Z,1012.59
2017-04-29T11:13:14.645Z,1012.6
2017-04-29T11:14:24.991Z,1012.55
2017-04-29T11:15:35.281Z,1012.52
2017-04-29T11:16:45.209Z,1012.55
2017-04-29T11:17:55.498Z,1012.5
2017-04-29T11:19:05.798Z,1012.54
2017-04-29T11:20:15.827Z,1012.55
2017-04-29T11:21:25.821Z,1012.48
2017-04-29T11:22:36.067Z,1012.46
2017-04-29T11:23:46.041Z,1012.42
2017-04-29T11:24:56.347Z,1012.42
2017-04-29T11:26:06.650Z,1012.43
2017-04-29T11:27:16.638Z,1012.41
2017-04-29T11:28:27.268Z,1012.45
2017-04-29T11:29:37.566Z,1012.39
2017-04-29T11:30:47.242Z,1012.49
2017-04-29T11:31:57.535Z,1012.46
2017-04-29T11:33:07.831Z,1012.54
2017-04-29T11:34:18.376Z,1012.53
2017-04-29T11:35:28.674Z,1012.49
2017-04-29T11:36:38.971Z,1012.43
2017-04-29T11:37:49.264Z,1012.46
2017-04-29T11:38:59.259Z,1012.43
2017-04-29T11:40:09.189Z,1012.47
2017-04-29T11:41:19.471Z,1012.5
2017-04-29T11:42:29.774Z,1012.45
2017-04-29T11:43:39.760Z,1012.44
2017-04-29T11:44:49.746Z,1012.46
2017-04-29T11:45:59.658Z,1012.41
2017-04-29T11:47:09.966Z,1012.44
2017-04-29T11:48:20.262Z,1012.47
2017-04-29T11:49:30.563Z,1012.41
2017-04-29T11:50:40.861Z,1012.41
2017-04-29T11:51:51.098Z,1012.45
2017-04-29T11:53:01.408Z,1012.42
2017-04-29T11:54:11.406Z,1012.39
2017-04-29T11:55:21.697Z,1012.41
2017-04-29T11:56:31.995Z,1012.39
2017-04-29T11:57:42.551Z,1012.4
2017-04-29T11:58:52.864Z,1012.4
2017-04-29T12:00:03.155Z,1012.4
2017-04-29T12:01:13.441Z,1012.47
2017-04-29T12:02:23.716Z,1012.44
2017-04-29T12:03:33.941Z,1012.46
2017-04-29T12:04:43.617Z,1012.45
2017-04-29T12:05:53.604Z,1012.51
2017-04-29T12:07:03.615Z,1012.46
2017-04-29T12:08:13.907Z,1012.51
2017-04-29T12:09:24.527Z,1012.57
2017-04-29T12:10:34.830Z,1012.53
2017-04-29T12:11:44.830Z,1012.56
2017-04-29T12:12:55.136Z,1012.52
2017-04-29T12:14:05.423Z,1012.57
2017-04-29T12:15:15.966Z,1012.59
2017-04-29T12:16:26.265Z,1012.59
2017-04-29T12:17:36.560Z,1012.61
2017-04-29T12:18:46.238Z,1012.62
2017-04-29T12:19:56.526Z,1012.59
2017-04-29T12:21:06.776Z,1012.6
2017-04-29T12:22:16.762Z,1012.68
2017-04-29T12:23:27.049Z,1012.67
2017-04-29T12:24:37.056Z,1012.66
2017-04-29T12:25:47.354Z,1012.71
2017-04-29T12:26:57.897Z,1012.68
2017-04-29T12:28:08.187Z,1012.68
2017-04-29T12:29:18.190Z,1012.63
2017-04-29T12:30:28.215Z,1012.65
2017-04-29T12:31:38.526Z,1012.67
2017-04-29T12:32:49.109Z,1012.67
2017-04-29T12:33:59.429Z,1012.66
2017-04-29T12:35:09.733Z,1012.7
2017-04-29T12:36:20.032Z,1012.7
2017-04-29T12:37:30.017Z,1012.66
2017-04-29T12:38:40.271Z,1012.7
2017-04-29T12:39:50.569Z,1012.69
2017-04-29T12:41:00.261Z,1012.75
2017-04-29T12:42:10.556Z,1012.75
2017-04-29T12:43:20.544Z,1012.75
2017-04-29T12:44:30.776Z,1012.71
2017-04-29T12:45:41.097Z,1012.74
2017-04-29T12:46:51.088Z,1012.78
2017-04-29T12:48:01.067Z,1012.73
2017-04-29T12:49:11.375Z,1012.76
2017-04-29T12:50:22.009Z,1012.8
2017-04-29T12:51:32.333Z,1012.78
2017-04-29T12:52:42.633Z,1012.79
2017-04-29T12:53:52.938Z,1012.76
2017-04-29T12:55:03.226Z,1012.82
2017-04-29T12:56:13.773Z,1012.81
2017-04-29T12:57:23.458Z,1012.78
2017-04-29T12:58:33.753Z,1012.81
2017-04-29T12:59:44.056Z,1012.86
2017-04-29T13:00:54.033Z,1012.78
2017-04-29T13:02:04.575Z,1012.82
2017-04-29T13:03:14.875Z,1012.81
2017-04-29T13:04:24.863Z,1012.74
2017-04-29T13:05:34.856Z,1012.77
2017-04-29T13:06:44.834Z,1012.78
2017-04-29T13:07:55.403Z,1012.82
2017-04-29T13:09:05.716Z,1012.85
2017-04-29T13:10:15.710Z,1012.85
2017-04-29T13:11:25.995Z,1012.87
2017-04-29T13:12:36.296Z,1012.85
2017-04-29T13:13:46.589Z,1012.82
2017-04-29T13:14:56.885Z,1012.83
2017-04-29T13:16:07.171Z,1012.8
2017-04-29T13:17:17.465Z,1012.76
2017-04-29T13:18:27.775Z,1012.73
2017-04-29T13:19:38.315Z,1012.73
2017-04-29T13:20:48.314Z,1012.73
2017-04-29T13:21:58.630Z,1012.72
2017-04-29T13:23:08.608Z,1012.68
2017-04-29T13:24:18.904Z,1012.71
2017-04-29T13:25:29.452Z,1012.69
2017-04-29T13:26:39.446Z,1012.69
2017-04-29T13:27:49.806Z,1012.69
2017-04-29T13:28:59.789Z,1012.64
2017-04-29T13:30:10.080Z,1012.63
2017-04-29T13:31:20.619Z,1012.62
2017-04-29T13:32:30.920Z,1012.59
2017-04-29T13:33:41.206Z,1012.56
2017-04-29T13:34:51.193Z,1012.6
2017-04-29T13:36:01.487Z,1012.57
2017-04-29T13:37:11.140Z,1012.61
2017-04-29T13:38:21.435Z,1012.59
2017-04-29T13:39:31.432Z,1012.56
2017-04-29T13:40:41.750Z,1012.58
2017-04-29T13:41:51.757Z,1012.56
2017-04-29T13:43:02.311Z,1012.63
2017-04-29T13:44:12.628Z,1012.64
2017-04-29T13:45:22.615Z,1012.63
2017-04-29T13:46:32.945Z,1012.67
2017-04-29T13:47:42.614Z,1012.63
2017-04-29T13:48:52.893Z,1012.62
2017-04-29T13:50:03.210Z,1012.62
2017-04-29T13:51:13.220Z,1012.63
2017-04-29T13:52:23.522Z,1012.68
2017-04-29T13:53:33.492Z,1012.6
2017-04-29T13:54:44.090Z,1012.63
2017-04-29T13:55:54.393Z,1012.63
2017-04-29T13:57:04.696Z,1012.63
2017-04-29T13:58:14.979Z,1012.64
2017-04-29T13:59:24.967Z,1012.58
2017-04-29T14:00:35.200Z,1012.59
2017-04-29T14:01:45.516Z,1012.62
2017-04-29T14:02:55.814Z,1012.6
2017-04-29T14:04:05.799Z,1012.58
2017-04-29T14:05:15.798Z,1012.57
2017-04-29T14:06:26.342Z,1012.6
2017-04-29T14:07:36.013Z,1012.59
2017-04-29T14:08:45.999Z,1012.62
2017-04-29T14:09:56.297Z,1012.6
2017-04-29T14:11:06.576Z,1012.57